Brownfield, ME (04010)

5:58 AM EDT on May 27, 2015 (GMT -0400)
misty lane | | Change Station
CLOSE
Current Station
Personal Weather Station
Location: Brownfield, ME
Elevation: 404 ft
Nearby Weather Stations

Elev 404 ft 43.94 °N, 70.87 °W | Updated 9 minutes ago

Overcast
Overcast
65.5 °F
Feels Like 65.5 °F
N
0.0
Wind Variable Wind from SSW
Gusts 0.0 mph

Today
High -- | Low -- °F
--% Chance of Precip.
Yesterday
High -- | Low -- °F
Precip. -- in
5:07 AM 8:14 PM
Waxing Gibbous, 66% visible
Pressure 30.08 in
Visibility 10.0 miles
Clouds Overcast 10000 ft
Dew Point 64 °F
Humidity 95%
Rainfall 0.00 in
Snow Depth Not available.
UV 0 out of 12
Pollen 7.90 out of 12
Air Quality Not available.
Flu Activity Local Activity
METAR KIZG 270854Z AUTO 00000KT 10SM OVC100 19/17 A3009 RMK AO2 SLP186 T01890167 55001

More Conditions Fewer Conditions

Pressure 30.08 in
Visibility 10.0 miles
Clouds Overcast 10000 ft
Dew Point 64 °F
Humidity 95%
Rainfall 0.00 in
Snow Depth Not available.
UV 0 out of 12
Pollen 7.90 out of 12
Air Quality Not available.
Flu Activity Local Activity
METAR KIZG 270854Z AUTO 00000KT 10SM OVC100 19/17 A3009 RMK AO2 SLP186 T01890167 55001

More Conditions Fewer Conditions

10-Day Weather Forecast

Almanac

Astronomy

May. 27, 2015 Rise Set
Actual Time
Civil Twilight
Nautical Twilight
Astronomical Twilight
Moon
Length of Visible Light
Length of Day
Tomorrow will be .
, % of the Moon is Illuminated

Today's Extremes

State Highs State Lows

Community

WunderPhotos

Upload Photos

1,824,635 photos uploaded!

WunderBlogs® & News

Nearby

Air Quality

  Air Quality AQ Index Pollutant
Not available.

Snow Depth

Station Depth Elevation

Earthquake Activity

City Distance Mag. Time & Date
Minimum magnitude displayed is 2.5.

Coastal Water Temperatures

Place Temperature

Stations

Nearby Weather Stations

Station Location Temp. Windchill Dew Point Humidity Wind Precip. Elev Updated Type